Time;durP1;ratioP1;P1;durP2;ratioP2;P2;SDS_P1;SDS_P2;PMS_P1;PMS_P2;Temp;Humidity;BMP_temperature;BMP_pressure;BME280_temperature;BME280_humidity;BME280_pressure;Samples;Min_cycle;Max_cycle;Signal;HPM_P1;HPM_P2
2022/06/01 00:00:33;;;;;;;7.60;4.13;;;;;;;;;;4968328;28;20254;-50
2022/06/01 00:02:58;;;;;;;11.40;4.93;;;;;;;;;;4968300;28;20282;-50
2022/06/01 00:05:23;;;;;;;6.47;4.03;;;;;;;;;;4969209;28;20776;-50
2022/06/01 00:07:49;;;;;;;5.97;3.67;;;;;;;;;;4967310;28;20485;-50
2022/06/01 00:10:14;;;;;;;7.60;4.00;;;;;;;;;;4967638;28;20027;-50
2022/06/01 00:12:39;;;;;;;8.77;4.18;;;;;;;;;;4968077;28;20034;-50
2022/06/01 00:15:05;;;;;;;6.93;4.25;;;;;;;;;;4967979;28;20126;-50
2022/06/01 00:17:31;;;;;;;6.82;4.30;;;;;;;;;;4968950;28;20035;-50
2022/06/01 00:19:56;;;;;;;7.43;4.00;;;;;;;;;;4967811;28;20046;-51
2022/06/01 00:22:21;;;;;;;8.37;4.37;;;;;;;;;;4967377;28;20333;-50
2022/06/01 00:24:47;;;;;;;6.20;4.35;;;;;;;;;;4968126;28;20313;-50
2022/06/01 00:27:12;;;;;;;8.32;4.45;;;;;;;;;;4968288;28;20042;-50
2022/06/01 00:29:37;;;;;;;7.15;4.00;;;;;;;;;;4968667;28;20042;-49
2022/06/01 00:32:02;;;;;;;6.37;4.50;;;;;;;;;;4968502;28;20022;-50
2022/06/01 00:34:28;;;;;;;8.77;4.63;;;;;;;;;;4969522;28;20274;-50
2022/06/01 00:36:53;;;;;;;5.97;3.90;;;;;;;;;;4969395;28;20022;-52
2022/06/01 00:39:18;;;;;;;6.53;3.80;;;;;;;;;;4968011;28;20343;-50
2022/06/01 00:41:43;;;;;;;6.47;3.80;;;;;;;;;;4968396;28;20278;-50
2022/06/01 00:44:09;;;;;;;7.20;3.43;;;;;;;;;;4967961;28;20089;-49
2022/06/01 00:46:34;;;;;;;6.20;3.70;;;;;;;;;;4969389;28;20278;-51
2022/06/01 00:49:13;;;;;;;5.07;3.60;;;;;;;;;;4971236;28;20049;-50
2022/06/01 00:51:39;;;;;;;8.45;3.97;;;;;;;;;;4989398;28;20304;-50
2022/06/01 00:54:04;;;;;;;5.77;3.30;;;;;;;;;;4986673;28;20489;-51
2022/06/01 00:56:33;;;;;;;5.47;3.43;;;;;;;;;;4984727;28;20276;-50
2022/06/01 00:58:59;;;;;;;5.68;3.58;;;;;;;;;;4983535;28;20703;-50
2022/06/01 01:01:24;;;;;;;5.88;3.30;;;;;;;;;;4965163;28;20788;-53
2022/06/01 01:03:50;;;;;;;6.43;3.00;;;;;;;;;;4981677;28;20056;-51
2022/06/01 01:06:17;;;;;;;5.88;3.53;;;;;;;;;;4982200;28;20014;-50
2022/06/01 01:08:43;;;;;;;4.65;3.30;;;;;;;;;;4969736;28;20034;-50
2022/06/01 01:11:08;;;;;;;6.20;3.38;;;;;;;;;;4984396;28;20034;-50
2022/06/01 01:13:34;;;;;;;6.65;3.17;;;;;;;;;;4969091;28;20018;-50
2022/06/01 01:15:59;;;;;;;5.57;2.80;;;;;;;;;;4969513;28;20030;-50
2022/06/01 01:18:35;;;;;;;8.07;3.43;;;;;;;;;;4985779;28;20026;-51
2022/06/01 01:21:19;;;;;;;8.23;2.80;;;;;;;;;;4984503;28;20858;-50
2022/06/01 01:23:44;;;;;;;6.97;3.20;;;;;;;;;;4987091;28;20033;-50
2022/06/01 01:26:09;;;;;;;7.82;3.05;;;;;;;;;;4985949;28;20046;-55
2022/06/01 01:28:35;;;;;;;6.33;3.43;;;;;;;;;;4992257;28;20456;-55
2022/06/01 01:31:02;;;;;;;8.13;2.97;;;;;;;;;;4986433;28;20253;-55
2022/06/01 01:33:28;;;;;;;6.75;3.05;;;;;;;;;;4989146;28;20030;-55
2022/06/01 01:35:55;;;;;;;7.43;3.10;;;;;;;;;;4988496;28;20037;-56
2022/06/01 01:38:29;;;;;;;5.03;2.35;;;;;;;;;;4989965;28;20041;-55
2022/06/01 01:41:18;;;;;;;4.97;2.80;;;;;;;;;;4986510;28;20018;-54
2022/06/01 01:43:48;;;;;;;6.35;2.95;;;;;;;;;;4977025;28;20034;-56
2022/06/01 01:46:14;;;;;;;8.80;2.72;;;;;;;;;;4989764;28;20022;-52
2022/06/01 01:48:39;;;;;;;7.57;3.05;;;;;;;;;;4984733;28;20042;-52
2022/06/01 01:51:05;;;;;;;6.50;2.97;;;;;;;;;;4987080;28;20022;-52
2022/06/01 01:53:32;;;;;;;4.90;2.78;;;;;;;;;;4968785;28;20261;-52
2022/06/01 01:56:11;;;;;;;4.63;2.65;;;;;;;;;;4987138;28;20029;-52
2022/06/01 01:58:55;;;;;;;5.75;2.80;;;;;;;;;;4968528;28;20032;-51
2022/06/01 02:01:46;;;;;;;6.72;2.70;;;;;;;;;;4985479;28;20018;-52
2022/06/01 02:07:24;;;;;;;7.45;2.92;;;;;;;;;;4985652;28;20054;-52
2022/06/01 02:12:42;;;;;;;5.25;2.50;;;;;;;;;;4983868;28;20061;-53
2022/06/01 02:15:08;;;;;;;6.60;3.05;;;;;;;;;;4986371;28;20026;-51
2022/06/01 02:17:37;;;;;;;6.80;2.90;;;;;;;;;;4985314;28;20569;-52
2022/06/01 02:20:02;;;;;;;4.68;2.67;;;;;;;;;;4969416;28;20034;-52
2022/06/01 02:22:27;;;;;;;6.97;2.73;;;;;;;;;;4984541;28;20564;-52
2022/06/01 02:24:53;;;;;;;4.07;2.40;;;;;;;;;;4986196;28;20289;-52
2022/06/01 02:27:18;;;;;;;6.07;2.97;;;;;;;;;;4987171;28;20277;-51
2022/06/01 02:29:44;;;;;;;4.88;2.80;;;;;;;;;;4968797;28;20030;-52
2022/06/01 02:32:09;;;;;;;5.65;2.80;;;;;;;;;;4988381;28;20014;-53
2022/06/01 02:34:34;;;;;;;6.78;3.00;;;;;;;;;;4975160;28;20508;-51
2022/06/01 02:37:00;;;;;;;3.83;2.40;;;;;;;;;;4989871;28;20110;-52
2022/06/01 02:39:25;;;;;;;5.10;2.60;;;;;;;;;;4971943;28;20284;-52
2022/06/01 02:44:34;;;;;;;3.33;2.42;;;;;;;;;;4992343;28;20036;-52
2022/06/01 02:47:00;;;;;;;5.40;2.63;;;;;;;;;;4988636;28;20487;-52
2022/06/01 02:49:25;;;;;;;4.68;2.60;;;;;;;;;;4981145;28;20881;-52
2022/06/01 02:51:50;;;;;;;6.87;2.40;;;;;;;;;;4969346;28;20023;-51
2022/06/01 02:54:15;;;;;;;3.15;2.50;;;;;;;;;;4969364;28;20270;-51
2022/06/01 02:56:41;;;;;;;4.63;2.70;;;;;;;;;;4970731;28;20050;-51
2022/06/01 02:59:06;;;;;;;5.10;2.88;;;;;;;;;;4973891;28;20517;-50
2022/06/01 03:01:32;;;;;;;108.97;61.95;;;;;;;;;;4968849;28;20114;-51
2022/06/01 03:03:58;;;;;;;7.45;2.80;;;;;;;;;;4969775;28;20033;-52
2022/06/01 03:06:23;;;;;;;6.57;2.70;;;;;;;;;;4971029;28;20057;-53
2022/06/01 03:08:48;;;;;;;3.60;2.50;;;;;;;;;;4972359;28;20801;-53
2022/06/01 03:11:13;;;;;;;7.13;2.53;;;;;;;;;;4970290;28;20065;-52
2022/06/01 03:13:39;;;;;;;6.22;2.60;;;;;;;;;;4970842;28;20273;-52
2022/06/01 03:16:04;;;;;;;5.40;2.90;;;;;;;;;;4970281;28;20542;-52
2022/06/01 03:18:31;;;;;;;3.60;2.35;;;;;;;;;;4971018;28;20992;-51
2022/06/01 03:20:56;;;;;;;4.32;2.80;;;;;;;;;;4969762;28;20089;-51
2022/06/01 03:23:21;;;;;;;8.80;2.90;;;;;;;;;;4971107;28;20027;-51
2022/06/01 03:25:46;;;;;;;4.57;2.60;;;;;;;;;;4969129;28;20345;-51
2022/06/01 03:28:12;;;;;;;5.55;2.65;;;;;;;;;;4968954;28;20841;-53
2022/06/01 03:30:37;;;;;;;6.03;2.63;;;;;;;;;;4969151;28;20035;-54
2022/06/01 03:33:03;;;;;;;3.93;2.70;;;;;;;;;;4968603;28;20831;-52
2022/06/01 03:35:29;;;;;;;4.60;2.90;;;;;;;;;;4969678;28;20497;-52
2022/06/01 03:37:54;;;;;;;5.25;3.17;;;;;;;;;;4967809;28;20488;-52
2022/06/01 03:40:20;;;;;;;6.05;3.03;;;;;;;;;;4967753;28;20083;-52
2022/06/01 03:42:45;;;;;;;4.00;2.65;;;;;;;;;;4966342;28;20711;-52
2022/06/01 03:47:55;;;;;;;3.58;3.00;;;;;;;;;;4968226;28;20045;-51
2022/06/01 03:50:21;;;;;;;6.57;3.40;;;;;;;;;;4983136;28;20138;-53
2022/06/01 03:52:46;;;;;;;7.43;3.53;;;;;;;;;;4987107;28;20101;-51
2022/06/01 03:55:11;;;;;;;16.35;8.48;;;;;;;;;;4984960;28;20496;-51
2022/06/01 03:57:37;;;;;;;540.63;450.42;;;;;;;;;;4988881;28;20030;-52
2022/06/01 04:00:05;;;;;;;6.32;4.40;;;;;;;;;;4989787;28;20489;-53
2022/06/01 04:02:30;;;;;;;8.50;4.65;;;;;;;;;;4987620;28;20027;-52
2022/06/01 04:04:57;;;;;;;7.32;4.35;;;;;;;;;;4988296;28;20030;-54
2022/06/01 04:07:22;;;;;;;7.35;4.78;;;;;;;;;;4987921;28;20494;-52
2022/06/01 04:09:47;;;;;;;8.30;5.43;;;;;;;;;;4985153;28;20030;-54
2022/06/01 04:12:12;;;;;;;9.83;5.80;;;;;;;;;;4987309;28;20022;-53
2022/06/01 04:14:37;;;;;;;8.00;5.80;;;;;;;;;;4987170;28;20356;-52
2022/06/01 04:17:03;;;;;;;10.00;5.93;;;;;;;;;;4985688;28;20013;-53
2022/06/01 04:19:28;;;;;;;11.82;6.47;;;;;;;;;;4988858;28;20104;-53
2022/06/01 04:21:53;;;;;;;11.10;6.33;;;;;;;;;;4985887;28;20583;-53
2022/06/01 04:24:19;;;;;;;8.75;5.93;;;;;;;;;;4987915;28;20018;-52
2022/06/01 04:26:44;;;;;;;7.78;5.63;;;;;;;;;;4970552;28;20490;-53
2022/06/01 04:29:09;;;;;;;12.67;6.40;;;;;;;;;;4986340;28;20081;-53
2022/06/01 04:31:35;;;;;;;13.45;6.47;;;;;;;;;;4985043;28;20266;-52
2022/06/01 04:34:00;;;;;;;11.82;6.30;;;;;;;;;;4986928;28;20022;-52
2022/06/01 04:36:25;;;;;;;9.23;5.60;;;;;;;;;;4984102;28;20085;-52
2022/06/01 04:38:50;;;;;;;9.90;5.40;;;;;;;;;;4987101;28;20085;-51
2022/06/01 04:41:16;;;;;;;7.57;4.57;;;;;;;;;;4985376;28;20262;-52
2022/06/01 04:43:41;;;;;;;13.13;5.05;;;;;;;;;;4986289;28;20266;-52
2022/06/01 04:46:06;;;;;;;8.38;4.38;;;;;;;;;;4985784;28;20023;-53
2022/06/01 04:48:32;;;;;;;8.43;4.40;;;;;;;;;;4986943;28;20026;-51
2022/06/01 04:50:57;;;;;;;7.53;4.10;;;;;;;;;;4986134;28;20388;-52
2022/06/01 04:53:22;;;;;;;8.65;3.90;;;;;;;;;;4988491;28;20034;-52
2022/06/01 04:55:47;;;;;;;6.90;3.87;;;;;;;;;;4987541;28;20100;-52
2022/06/01 04:58:13;;;;;;;8.87;4.10;;;;;;;;;;4988531;28;20320;-52
2022/06/01 05:00:38;;;;;;;7.65;4.32;;;;;;;;;;4989283;28;20269;-52
2022/06/01 05:03:04;;;;;;;8.18;4.10;;;;;;;;;;4985378;28;20034;-52
2022/06/01 05:05:29;;;;;;;7.65;4.00;;;;;;;;;;4984573;28;20464;-51
2022/06/01 05:07:54;;;;;;;10.13;4.45;;;;;;;;;;4979715;28;20034;-51
2022/06/01 05:10:22;;;;;;;8.57;3.70;;;;;;;;;;4986249;28;20038;-53
2022/06/01 05:12:47;;;;;;;11.23;4.65;;;;;;;;;;4985054;28;20219;-53
2022/06/01 05:15:13;;;;;;;252.73;78.55;;;;;;;;;;4985532;28;20482;-52
2022/06/01 05:17:38;;;;;;;61.22;50.38;;;;;;;;;;4984771;28;20109;-51
2022/06/01 05:20:03;;;;;;;8.75;4.50;;;;;;;;;;4985668;28;20019;-53
2022/06/01 05:22:29;;;;;;;1280.78;563.08;;;;;;;;;;4986275;28;20490;-52
2022/06/01 05:24:54;;;;;;;664.83;276.57;;;;;;;;;;4981907;28;20109;-54
2022/06/01 05:27:19;;;;;;;6.78;3.83;;;;;;;;;;4983729;28;20808;-52
2022/06/01 05:29:45;;;;;;;10.07;4.53;;;;;;;;;;4984946;28;20391;-52
2022/06/01 05:32:10;;;;;;;7.25;4.65;;;;;;;;;;4985711;28;20266;-51
2022/06/01 05:34:35;;;;;;;6.90;4.50;;;;;;;;;;4987366;28;20026;-52
2022/06/01 05:37:00;;;;;;;7.53;4.93;;;;;;;;;;4983543;28;20092;-52
2022/06/01 05:39:26;;;;;;;11.63;5.00;;;;;;;;;;4983413;28;20352;-52
2022/06/01 05:41:51;;;;;;;8.55;5.32;;;;;;;;;;4984019;28;20037;-53
2022/06/01 05:44:16;;;;;;;9.63;5.53;;;;;;;;;;4986817;28;20014;-51
2022/06/01 05:46:42;;;;;;;11.60;5.13;;;;;;;;;;4983867;28;20037;-51
2022/06/01 05:49:07;;;;;;;11.45;5.03;;;;;;;;;;4985021;28;20112;-52
2022/06/01 05:51:35;;;;;;;9.40;5.00;;;;;;;;;;4988820;28;20034;-52
2022/06/01 05:54:00;;;;;;;10.25;5.07;;;;;;;;;;4988250;28;20282;-53
2022/06/01 05:56:26;;;;;;;8.63;5.45;;;;;;;;;;4985723;28;20805;-50
2022/06/01 05:58:51;;;;;;;10.73;5.50;;;;;;;;;;4985924;28;20025;-52
2022/06/01 06:01:22;;;;;;;11.43;5.47;;;;;;;;;;4985217;28;21150;-51
2022/06/01 06:03:48;;;;;;;10.38;5.32;;;;;;;;;;4984423;28;20561;-52
2022/06/01 06:06:15;;;;;;;11.45;5.20;;;;;;;;;;4983326;28;20749;-52
2022/06/01 06:08:41;;;;;;;9.38;5.00;;;;;;;;;;4983863;28;20387;-51
2022/06/01 06:11:06;;;;;;;17.92;8.82;;;;;;;;;;4983577;28;20034;-51
2022/06/01 06:13:35;;;;;;;7.40;4.90;;;;;;;;;;4984050;28;20037;-53
2022/06/01 06:16:01;;;;;;;74.18;21.83;;;;;;;;;;4984214;28;20188;-51
2022/06/01 06:18:26;;;;;;;11.68;5.60;;;;;;;;;;4981710;28;20549;-52
2022/06/01 06:20:51;;;;;;;8.00;4.60;;;;;;;;;;4985585;28;20045;-52
2022/06/01 06:23:16;;;;;;;8.53;4.70;;;;;;;;;;4986704;28;20053;-52
2022/06/01 06:25:42;;;;;;;9.82;5.05;;;;;;;;;;4985551;28;20498;-52
2022/06/01 06:28:07;;;;;;;10.02;5.57;;;;;;;;;;4986004;28;20045;-51
2022/06/01 06:30:32;;;;;;;11.55;4.93;;;;;;;;;;4987642;28;20034;-53
2022/06/01 06:32:58;;;;;;;7.80;4.32;;;;;;;;;;4981756;28;20030;-52
2022/06/01 06:35:23;;;;;;;8.00;4.18;;;;;;;;;;4983429;28;20452;-52
2022/06/01 06:37:48;;;;;;;6.83;3.70;;;;;;;;;;4984386;28;20700;-52
2022/06/01 06:40:13;;;;;;;7.23;3.70;;;;;;;;;;4980943;28;20347;-52
2022/06/01 06:42:39;;;;;;;9.55;3.20;;;;;;;;;;4966427;28;20278;-52
2022/06/01 06:45:04;;;;;;;5.70;3.17;;;;;;;;;;4981050;28;20537;-52
2022/06/01 06:47:32;;;;;;;6.70;3.63;;;;;;;;;;4980564;28;20273;-50
2022/06/01 06:49:57;;;;;;;5.57;3.50;;;;;;;;;;4980430;28;20225;-52
2022/06/01 06:52:22;;;;;;;6.93;3.35;;;;;;;;;;4981386;28;20135;-52
2022/06/01 06:54:47;;;;;;;4.65;3.10;;;;;;;;;;4978231;28;20109;-51
2022/06/01 06:57:13;;;;;;;4.73;3.40;;;;;;;;;;4975734;28;20505;-51
2022/06/01 06:59:38;;;;;;;5.67;3.30;;;;;;;;;;4980224;28;20447;-51
2022/06/01 07:02:03;;;;;;;5.75;3.40;;;;;;;;;;4982162;28;20388;-52
2022/06/01 07:04:29;;;;;;;7.43;3.20;;;;;;;;;;4986347;28;20799;-51
2022/06/01 07:06:54;;;;;;;5.23;2.90;;;;;;;;;;4979648;28;20435;-50
2022/06/01 07:09:19;;;;;;;6.72;3.20;;;;;;;;;;4980929;28;20053;-52
2022/06/01 07:11:44;;;;;;;5.77;3.23;;;;;;;;;;4979795;28;20023;-50
2022/06/01 07:14:10;;;;;;;5.03;2.90;;;;;;;;;;4978301;28;20018;-51
2022/06/01 07:16:35;;;;;;;5.63;3.53;;;;;;;;;;4983640;28;20022;-52
2022/06/01 07:19:02;;;;;;;6.55;3.53;;;;;;;;;;4980768;28;20336;-52
2022/06/01 07:21:28;;;;;;;4.75;2.92;;;;;;;;;;4988447;28;20058;-52
2022/06/01 07:23:53;;;;;;;129.48;28.58;;;;;;;;;;4985791;28;20599;-51
2022/06/01 07:26:19;;;;;;;5.27;3.10;;;;;;;;;;4984153;28;20027;-52
2022/06/01 07:28:45;;;;;;;4.30;2.85;;;;;;;;;;4983513;28;20304;-53
2022/06/01 07:31:10;;;;;;;12.35;3.92;;;;;;;;;;4989079;28;20026;-50
2022/06/01 07:33:35;;;;;;;6.32;3.63;;;;;;;;;;4983716;28;20426;-50
2022/06/01 07:36:04;;;;;;;5.57;3.28;;;;;;;;;;4985251;28;20081;-50
2022/06/01 07:44:17;;;;;;;6.40;3.90;;;;;;;;;;4982700;28;20030;-51
2022/06/01 07:46:42;;;;;;;5.47;3.27;;;;;;;;;;4983628;28;20214;-51
2022/06/01 07:49:08;;;;;;;5.75;3.08;;;;;;;;;;4983440;28;20300;-49
2022/06/01 07:51:36;;;;;;;4.70;3.10;;;;;;;;;;4983224;28;20022;-50
2022/06/01 07:54:02;;;;;;;5.63;2.75;;;;;;;;;;4981352;28;20281;-50
2022/06/01 07:56:27;;;;;;;6.15;2.90;;;;;;;;;;4984415;28;20023;-52
2022/06/01 07:58:53;;;;;;;5.90;3.38;;;;;;;;;;4981210;28;20569;-50
2022/06/01 08:01:25;;;;;;;5.68;3.08;;;;;;;;;;4982899;28;20092;-50
2022/06/01 08:03:50;;;;;;;5.05;3.47;;;;;;;;;;4984130;28;20118;-52
2022/06/01 08:06:16;;;;;;;4.50;2.92;;;;;;;;;;4988730;28;20127;-50
2022/06/01 08:08:41;;;;;;;4.20;3.03;;;;;;;;;;4986329;28;20036;-52
2022/06/01 08:11:06;;;;;;;7.67;3.33;;;;;;;;;;4987494;28;20113;-52
2022/06/01 08:13:31;;;;;;;4.47;2.93;;;;;;;;;;4982991;28;20442;-52
2022/06/01 08:15:57;;;;;;;5.07;2.87;;;;;;;;;;4981958;28;20413;-51
2022/06/01 08:18:23;;;;;;;6.10;2.90;;;;;;;;;;4986709;28;20265;-51
2022/06/01 08:20:48;;;;;;;5.00;3.13;;;;;;;;;;4980450;28;20328;-50
2022/06/01 08:23:13;;;;;;;5.53;3.05;;;;;;;;;;4979345;28;20026;-52
2022/06/01 08:25:39;;;;;;;4.68;2.80;;;;;;;;;;4982463;28;20496;-51
2022/06/01 08:28:04;;;;;;;5.18;3.08;;;;;;;;;;4983831;28;20042;-52
2022/06/01 08:30:30;;;;;;;4.75;3.03;;;;;;;;;;4986785;28;20021;-52
2022/06/01 08:32:55;;;;;;;5.43;3.65;;;;;;;;;;4990374;28;20029;-52
2022/06/01 08:35:22;;;;;;;4.82;3.30;;;;;;;;;;4990873;28;20070;-51
2022/06/01 08:37:47;;;;;;;5.20;3.25;;;;;;;;;;4987910;28;20500;-51
2022/06/01 08:40:12;;;;;;;1632.80;586.17;;;;;;;;;;4986652;28;20011;-52
2022/06/01 08:42:38;;;;;;;4.90;3.20;;;;;;;;;;4987819;28;20014;-51
2022/06/01 08:45:04;;;;;;;3.65;2.80;;;;;;;;;;4989839;28;20113;-51
2022/06/01 08:47:34;;;;;;;4.18;2.67;;;;;;;;;;4970393;28;20029;-52
2022/06/01 08:50:00;;;;;;;4.90;3.17;;;;;;;;;;4986480;28;20043;-52
2022/06/01 08:52:25;;;;;;;5.32;3.33;;;;;;;;;;4989326;28;20026;-52
2022/06/01 08:54:50;;;;;;;5.67;3.10;;;;;;;;;;4987113;28;20413;-51
2022/06/01 08:57:20;;;;;;;5.05;3.38;;;;;;;;;;4986441;28;20271;-52
2022/06/01 09:00:24;;;;;;;4.30;2.97;;;;;;;;;;4984366;28;20076;-50
2022/06/01 09:03:08;;;;;;;4.55;2.97;;;;;;;;;;4925548;29;20082;-52
2022/06/01 09:05:44;;;;;;;4.65;2.72;;;;;;;;;;4926551;29;20036;-51
2022/06/01 09:08:11;;;;;;;6.40;3.40;;;;;;;;;;4964087;28;20046;-53
2022/06/01 09:10:39;;;;;;;5.13;3.28;;;;;;;;;;4968537;28;20022;-52
2022/06/01 09:13:10;;;;;;;5.13;3.47;;;;;;;;;;4968348;28;20030;-54
2022/06/01 09:15:46;;;;;;;8.00;3.83;;;;;;;;;;4989974;28;20128;-52
2022/06/01 09:18:12;;;;;;;7.25;3.35;;;;;;;;;;4983671;28;20405;-52
2022/06/01 09:23:21;;;;;;;6.95;3.30;;;;;;;;;;4988227;28;20523;-54
2022/06/01 09:25:56;;;;;;;182.53;77.57;;;;;;;;;;4970053;28;20014;-53
2022/06/01 09:28:22;;;;;;;6.65;3.42;;;;;;;;;;4992432;28;20136;-52
2022/06/01 09:31:06;;;;;;;5.45;3.00;;;;;;;;;;4990206;28;20045;-52
2022/06/01 09:33:32;;;;;;;1419.63;627.20;;;;;;;;;;4988503;28;20038;-53
2022/06/01 09:36:03;;;;;;;10.52;4.03;;;;;;;;;;4985490;28;20038;-52
2022/06/01 09:38:42;;;;;;;934.17;325.15;;;;;;;;;;4985618;28;20054;-52
2022/06/01 09:41:11;;;;;;;4.95;3.45;;;;;;;;;;4985653;28;20026;-50
2022/06/01 09:43:40;;;;;;;9.48;3.75;;;;;;;;;;4992148;28;20038;-51
2022/06/01 09:46:06;;;;;;;10.63;5.97;;;;;;;;;;4990154;28;20034;-50
2022/06/01 09:48:44;;;;;;;15.18;9.30;;;;;;;;;;4987203;28;20033;-52
2022/06/01 09:51:12;;;;;;;11.65;5.38;;;;;;;;;;4967008;28;20037;-53
2022/06/01 09:53:45;;;;;;;7.55;4.28;;;;;;;;;;4966298;28;20022;-51
2022/06/01 09:56:10;;;;;;;8.60;4.50;;;;;;;;;;4990368;28;20021;-52
2022/06/01 10:07:00;;;;;;;7.35;3.97;;;;;;;;;;4985159;28;20044;-52
2022/06/01 10:09:26;;;;;;;6.22;3.35;;;;;;;;;;4982695;28;20058;-53
2022/06/01 10:11:54;;;;;;;9.02;4.32;;;;;;;;;;4988133;28;20061;-51
2022/06/01 10:14:24;;;;;;;7.00;3.92;;;;;;;;;;4987140;28;20033;-51
2022/06/01 10:16:49;;;;;;;8.65;3.55;;;;;;;;;;4968123;28;20045;-51
2022/06/01 10:19:16;;;;;;;9.67;4.10;;;;;;;;;;4977980;28;20081;-51
2022/06/01 10:21:47;;;;;;;6.93;3.70;;;;;;;;;;4977921;28;20022;-52
2022/06/01 10:24:15;;;;;;;10.43;3.90;;;;;;;;;;4984616;28;20046;-53
2022/06/01 10:26:49;;;;;;;11.35;4.80;;;;;;;;;;4984441;28;20164;-55
2022/06/01 10:29:15;;;;;;;13.63;4.05;;;;;;;;;;4984041;28;20041;-51
2022/06/01 10:31:42;;;;;;;13.88;4.38;;;;;;;;;;4984710;28;20026;-52
2022/06/01 10:34:16;;;;;;;14.25;4.00;;;;;;;;;;4987223;28;20034;-52
2022/06/01 10:36:43;;;;;;;13.82;3.80;;;;;;;;;;4972539;28;20022;-51
2022/06/01 10:39:19;;;;;;;9.70;3.40;;;;;;;;;;4966387;28;20027;-54
2022/06/01 10:42:08;;;;;;;11.93;3.65;;;;;;;;;;4983604;28;20112;-52
2022/06/01 10:44:36;;;;;;;12.83;3.70;;;;;;;;;;4978063;28;20048;-54
2022/06/01 10:47:10;;;;;;;12.20;3.30;;;;;;;;;;4983730;28;20045;-53
2022/06/01 10:49:51;;;;;;;18.38;11.88;;;;;;;;;;4982960;28;20081;-51
2022/06/01 10:52:16;;;;;;;11.73;3.60;;;;;;;;;;4987982;28;20029;-54
2022/06/01 10:54:41;;;;;;;8.27;3.50;;;;;;;;;;4989598;28;20022;-54
2022/06/01 10:57:08;;;;;;;15.63;5.20;;;;;;;;;;4987587;28;20306;-53
2022/06/01 10:59:33;;;;;;;8.65;3.50;;;;;;;;;;4986337;28;20812;-53
2022/06/01 11:02:25;;;;;;;8.03;3.50;;;;;;;;;;4987029;28;20027;-52
2022/06/01 11:05:13;;;;;;;11.00;2.90;;;;;;;;;;4973046;28;20277;-51
2022/06/01 11:07:54;;;;;;;7.78;2.83;;;;;;;;;;4976370;28;20038;-52
2022/06/01 11:10:22;;;;;;;6.47;3.03;;;;;;;;;;4985908;28;20051;-51
2022/06/01 11:12:52;;;;;;;6.97;3.05;;;;;;;;;;4973897;28;20047;-54
2022/06/01 11:15:17;;;;;;;7.13;3.00;;;;;;;;;;4986281;28;20096;-53
2022/06/01 11:17:45;;;;;;;8.40;3.03;;;;;;;;;;4992134;28;20104;-58
2022/06/01 11:20:30;;;;;;;7.00;3.00;;;;;;;;;;4970747;28;20543;-54
2022/06/01 11:23:11;;;;;;;5.20;2.63;;;;;;;;;;4989718;28;20010;-54
2022/06/01 11:25:36;;;;;;;7.47;3.10;;;;;;;;;;4965470;28;20033;-54
2022/06/01 11:28:04;;;;;;;6.63;3.17;;;;;;;;;;4985564;28;20073;-53
2022/06/01 11:30:40;;;;;;;5.72;2.67;;;;;;;;;;5009870;22;20809;-53
2022/06/01 11:33:09;;;;;;;10.48;3.05;;;;;;;;;;5025914;28;20176;-51
2022/06/01 11:35:39;;;;;;;6.15;2.85;;;;;;;;;;5021913;28;20029;-52
2022/06/01 11:38:04;;;;;;;5.68;3.10;;;;;;;;;;5020339;28;20061;-54
2022/06/01 11:40:43;;;;;;;7.80;2.50;;;;;;;;;;5026319;28;20539;-53
2022/06/01 11:43:18;;;;;;;7.68;2.97;;;;;;;;;;5010633;28;20029;-52
2022/06/01 11:45:44;;;;;;;5.70;2.88;;;;;;;;;;5027461;28;20030;-54
2022/06/01 11:48:10;;;;;;;6.47;2.65;;;;;;;;;;5022477;28;20177;-53
2022/06/01 11:51:06;;;;;;;6.03;2.70;;;;;;;;;;5006509;28;20850;-52
2022/06/01 11:53:33;;;;;;;8.45;3.90;;;;;;;;;;5008965;28;20124;-53
2022/06/01 11:56:13;;;;;;;5.40;2.40;;;;;;;;;;5003867;28;20026;-52
2022/06/01 11:58:40;;;;;;;6.07;2.85;;;;;;;;;;5019769;28;20018;-52
2022/06/01 12:01:16;;;;;;;5.15;2.10;;;;;;;;;;5011988;28;20867;-52
2022/06/01 12:03:47;;;;;;;5.20;2.35;;;;;;;;;;5017301;28;20021;-53
2022/06/01 12:06:13;;;;;;;5.93;2.65;;;;;;;;;;5016498;28;20455;-53
2022/06/01 12:08:44;;;;;;;4.50;2.08;;;;;;;;;;5016670;28;20048;-52
2022/06/01 12:11:28;;;;;;;4.60;2.38;;;;;;;;;;5018513;28;20029;-53
2022/06/01 12:13:54;;;;;;;6.55;2.45;;;;;;;;;;5023655;28;20018;-53
2022/06/01 12:16:21;;;;;;;4.30;2.20;;;;;;;;;;5017980;28;20083;-54
2022/06/01 12:19:06;;;;;;;7.70;2.47;;;;;;;;;;5022137;28;20021;-53
2022/06/01 12:21:34;;;;;;;4.65;2.50;;;;;;;;;;5012546;28;20141;-53
2022/06/01 12:30:00;;;;;;;4.88;1.95;;;;;;;;;;5017816;28;20041;-52
2022/06/01 12:32:26;;;;;;;3.70;2.03;;;;;;;;;;5000452;28;20103;-52
2022/06/01 12:35:06;;;;;;;3.45;1.85;;;;;;;;;;5017914;28;20473;-52
2022/06/01 12:37:31;;;;;;;5.57;2.30;;;;;;;;;;5020519;28;20021;-52
2022/06/01 12:39:58;;;;;;;3.97;1.70;;;;;;;;;;5012120;28;20079;-53
2022/06/01 12:42:27;;;;;;;5.38;2.00;;;;;;;;;;5021176;28;20267;-52
2022/06/01 12:44:53;;;;;;;4.13;2.05;;;;;;;;;;5016128;28;20025;-53
2022/06/01 12:47:25;;;;;;;4.43;2.05;;;;;;;;;;5017679;28;20238;-54
2022/06/01 12:49:51;;;;;;;3.85;2.00;;;;;;;;;;5000290;28;20048;-52
2022/06/01 12:52:18;;;;;;;6.67;2.40;;;;;;;;;;5002230;28;20019;-53
2022/06/01 12:54:43;;;;;;;3.90;1.80;;;;;;;;;;5004293;28;20299;-54
2022/06/01 12:57:09;;;;;;;3.13;1.87;;;;;;;;;;5013340;28;20021;-53
2022/06/01 12:59:35;;;;;;;3.10;1.63;;;;;;;;;;5023694;28;21212;-52
2022/06/01 13:02:01;;;;;;;5.13;1.88;;;;;;;;;;4998759;28;20057;-55
2022/06/01 13:04:26;;;;;;;6.57;1.90;;;;;;;;;;5013838;28;20045;-53
2022/06/01 13:06:52;;;;;;;5.43;1.92;;;;;;;;;;5016599;28;20101;-52
2022/06/01 13:09:22;;;;;;;7.27;1.90;;;;;;;;;;4989724;28;20407;-53
2022/06/01 13:11:56;;;;;;;3.35;1.60;;;;;;;;;;5014016;28;20017;-53
2022/06/01 13:14:22;;;;;;;4.53;1.52;;;;;;;;;;5017264;28;20390;-53
2022/06/01 13:16:51;;;;;;;3.70;1.67;;;;;;;;;;5015938;28;20025;-54
2022/06/01 13:19:27;;;;;;;4.45;1.52;;;;;;;;;;4999010;28;20482;-53
2022/06/01 13:21:55;;;;;;;3.72;1.63;;;;;;;;;;5012188;28;20026;-52
2022/06/01 13:24:20;;;;;;;3.20;1.70;;;;;;;;;;5014031;28;20040;-53
2022/06/01 13:26:47;;;;;;;4.03;1.57;;;;;;;;;;5014942;28;20033;-53
2022/06/01 13:29:14;;;;;;;5.43;1.85;;;;;;;;;;5001262;28;20063;-54
2022/06/01 13:31:40;;;;;;;7.70;2.28;;;;;;;;;;5018233;28;20595;-53
2022/06/01 13:34:06;;;;;;;6.47;2.60;;;;;;;;;;5001432;28;20061;-54
2022/06/01 13:36:36;;;;;;;4.13;1.40;;;;;;;;;;5017901;28;20017;-53
2022/06/01 13:39:11;;;;;;;6.45;1.50;;;;;;;;;;5004087;28;20127;-53
2022/06/01 13:41:41;;;;;;;7.43;1.88;;;;;;;;;;5020939;28;20461;-53
2022/06/01 13:44:09;;;;;;;4.60;1.40;;;;;;;;;;5018092;28;20022;-53
2022/06/01 13:46:46;;;;;;;4.15;1.50;;;;;;;;;;5002051;28;20025;-52
2022/06/01 13:49:12;;;;;;;3.60;1.30;;;;;;;;;;5015203;28;20512;-54
2022/06/01 13:51:39;;;;;;;4.30;1.60;;;;;;;;;;4999120;28;20499;-52
2022/06/01 13:54:23;;;;;;;4.53;1.52;;;;;;;;;;5012063;28;20030;-53
2022/06/01 13:56:49;;;;;;;5.70;1.30;;;;;;;;;;5012559;28;20141;-53
2022/06/01 13:59:31;;;;;;;6.63;1.90;;;;;;;;;;5010993;28;20121;-53
2022/06/01 14:02:18;;;;;;;5.78;1.98;;;;;;;;;;5019000;28;20026;-53
2022/06/01 14:04:44;;;;;;;4.70;1.77;;;;;;;;;;5016192;28;20037;-54
2022/06/01 14:07:12;;;;;;;5.75;1.45;;;;;;;;;;5006531;28;20589;-54
2022/06/01 14:09:49;;;;;;;38.58;20.50;;;;;;;;;;5015851;28;20033;-54
2022/06/01 14:12:14;;;;;;;3.67;1.33;;;;;;;;;;5012506;28;21388;-55
2022/06/01 14:14:40;;;;;;;118.10;49.45;;;;;;;;;;5002874;28;20128;-53
2022/06/01 14:17:09;;;;;;;4.13;1.52;;;;;;;;;;5018473;28;20025;-53
2022/06/01 14:19:34;;;;;;;4.25;1.40;;;;;;;;;;5017118;28;20519;-53
2022/06/01 14:22:00;;;;;;;4.55;1.42;;;;;;;;;;5007617;28;20030;-54
2022/06/01 14:24:25;;;;;;;5.33;1.70;;;;;;;;;;5022083;28;20091;-53
2022/06/01 14:29:35;;;;;;;4.20;2.03;;;;;;;;;;5014451;28;20386;-53
2022/06/01 14:32:00;;;;;;;3.93;2.00;;;;;;;;;;5018087;28;20567;-52
2022/06/01 14:34:26;;;;;;;3.05;1.50;;;;;;;;;;5021300;28;20459;-51
2022/06/01 14:36:51;;;;;;;4.22;1.48;;;;;;;;;;5021726;28;20020;-53
2022/06/01 14:39:19;;;;;;;2.75;1.25;;;;;;;;;;5006887;28;20021;-52
2022/06/01 14:41:45;;;;;;;2.00;1.20;;;;;;;;;;5002872;28;20025;-52
2022/06/01 14:44:14;;;;;;;4.97;1.30;;;;;;;;;;5021087;28;20100;-52
2022/06/01 14:46:39;;;;;;;3.08;1.73;;;;;;;;;;5014739;28;20030;-52
2022/06/01 14:49:04;;;;;;;5.40;2.50;;;;;;;;;;5018682;28;20486;-53
2022/06/01 14:51:31;;;;;;;5.13;1.50;;;;;;;;;;5024263;28;20021;-52
2022/06/01 14:53:56;;;;;;;3.40;1.30;;;;;;;;;;5026595;28;20104;-51
2022/06/01 14:56:21;;;;;;;8.90;1.50;;;;;;;;;;5005427;28;20096;-54
2022/06/01 14:58:46;;;;;;;3.08;1.52;;;;;;;;;;5020182;28;20040;-53
2022/06/01 15:01:13;;;;;;;4.30;1.97;;;;;;;;;;5017805;28;20022;-53
2022/06/01 15:03:42;;;;;;;4.38;1.63;;;;;;;;;;5019598;28;20124;-52
2022/06/01 15:06:09;;;;;;;4.75;1.60;;;;;;;;;;5004255;28;20025;-53
2022/06/01 15:08:35;;;;;;;4.38;1.40;;;;;;;;;;5018052;28;20029;-52
2022/06/01 15:11:00;;;;;;;3.95;1.60;;;;;;;;;;5023076;28;20385;-54
2022/06/01 15:13:25;;;;;;;4.43;1.30;;;;;;;;;;5025986;28;20026;-52
2022/06/01 15:15:51;;;;;;;5.70;1.90;;;;;;;;;;5019109;28;20038;-52
2022/06/01 15:18:16;;;;;;;3.55;1.30;;;;;;;;;;4994774;28;20284;-51
2022/06/01 15:20:41;;;;;;;7.23;1.90;;;;;;;;;;5018434;28;20084;-52